Time;durP1;ratioP1;P1;durP2;ratioP2;P2;SDS_P1;SDS_P2;PMS_P1;PMS_P2;Temp;Humidity;BMP_temperature;BMP_pressure;BME280_temperature;BME280_humidity;BME280_pressure;Samples;Min_cycle;Max_cycle;Signal;HPM_P1;HPM_P2
2022/09/11 06:01:46;;;;;;;;;17.00;15.00;;;;;;;;5306937;22;45981;-54
2022/09/11 06:04:12;;;;;;;;;13.67;13.67;;;;;;;;4973380;28;45345;-54
2022/09/11 06:06:38;;;;;;;;;15.00;13.67;;;;;;;;4969443;28;45439;-55
2022/09/11 06:09:04;;;;;;;;;15.33;13.33;;;;;;;;4971211;28;45567;-55
2022/09/11 06:11:29;;;;;;;;;12.67;12.67;;;;;;;;4974277;28;45456;-56
2022/09/11 06:13:55;;;;;;;;;17.00;14.67;;;;;;;;4964396;28;45335;-55
2022/09/11 06:16:21;;;;;;;;;18.33;16.00;;;;;;;;4967626;28;45222;-54
2022/09/11 06:18:48;;;;;;;;;7.00;7.00;;;;;;;;4965986;28;46102;-53
2022/09/11 06:21:16;;;;;;;;;16.00;12.33;;;;;;;;4971218;28;46476;-56
2022/09/11 06:23:41;;;;;;;;;15.00;14.67;;;;;;;;4978499;28;45167;-56
2022/09/11 06:26:08;;;;;;;;;16.00;14.33;;;;;;;;4969805;28;45563;-56
2022/09/11 06:28:35;;;;;;;;;14.33;12.67;;;;;;;;4975406;28;45522;-55
2022/09/11 06:31:01;;;;;;;;;16.00;13.67;;;;;;;;4965171;28;47087;-55
2022/09/11 06:33:29;;;;;;;;;16.00;11.67;;;;;;;;4967370;28;45344;-57
2022/09/11 06:35:56;;;;;;;;;14.00;14.00;;;;;;;;4970970;28;45420;-55
2022/09/11 06:38:21;;;;;;;;;16.00;13.67;;;;;;;;4967366;28;45661;-56
2022/09/11 06:40:46;;;;;;;;;12.67;11.67;;;;;;;;4974065;28;45438;-58
2022/09/11 06:43:13;;;;;;;;;16.00;14.33;;;;;;;;4977479;28;46206;-56
2022/09/11 06:45:39;;;;;;;;;12.33;12.33;;;;;;;;4973964;28;45293;-55
2022/09/11 06:48:05;;;;;;;;;13.67;12.00;;;;;;;;4970772;28;45534;-54
2022/09/11 06:50:39;;;;;;;;;21.00;16.00;;;;;;;;4977759;28;45960;-56
2022/09/11 06:53:04;;;;;;;;;15.67;13.67;;;;;;;;4970204;28;45313;-55
2022/09/11 06:55:29;;;;;;;;;17.67;15.00;;;;;;;;4975937;28;45501;-53
2022/09/11 06:57:54;;;;;;;;;16.00;14.00;;;;;;;;4979200;28;45479;-53
2022/09/11 07:00:19;;;;;;;;;19.67;17.67;;;;;;;;4974042;28;45387;-55
2022/09/11 07:02:45;;;;;;;;;14.00;13.67;;;;;;;;4969524;28;45635;-55
2022/09/11 07:05:10;;;;;;;;;13.67;13.67;;;;;;;;4973869;28;45615;-56
2022/09/11 07:07:35;;;;;;;;;13.33;13.33;;;;;;;;4973700;28;45605;-55
2022/09/11 07:10:03;;;;;;;;;16.67;16.67;;;;;;;;4976825;28;46779;-55
2022/09/11 07:12:28;;;;;;;;;15.67;14.00;;;;;;;;4970970;28;45559;-54
2022/09/11 07:14:53;;;;;;;;;16.00;12.67;;;;;;;;4972206;28;45348;-57
2022/09/11 07:17:18;;;;;;;;;15.33;15.33;;;;;;;;4973571;28;45420;-55
2022/09/11 07:19:43;;;;;;;;;17.33;15.33;;;;;;;;4975902;28;45479;-57
2022/09/11 07:22:09;;;;;;;;;20.00;16.67;;;;;;;;4969840;28;45304;-56
2022/09/11 07:24:34;;;;;;;;;24.00;17.33;;;;;;;;4975346;28;45384;-56
2022/09/11 07:26:59;;;;;;;;;20.33;15.00;;;;;;;;4967647;28;45328;-56
2022/09/11 07:29:24;;;;;;;;;16.67;16.33;;;;;;;;4973948;28;46226;-55
2022/09/11 07:31:50;;;;;;;;;18.67;18.67;;;;;;;;4980345;28;45336;-57
2022/09/11 07:34:15;;;;;;;;;19.00;16.00;;;;;;;;4977229;28;45696;-55
2022/09/11 07:36:40;;;;;;;;;18.67;16.67;;;;;;;;4977835;28;45517;-54
2022/09/11 07:39:05;;;;;;;;;17.33;15.67;;;;;;;;4975798;28;45945;-57
2022/09/11 07:41:31;;;;;;;;;15.67;15.67;;;;;;;;4977813;28;45462;-56
2022/09/11 07:44:05;;;;;;;;;20.33;19.00;;;;;;;;4977760;28;45461;-58
2022/09/11 07:46:31;;;;;;;;;17.00;15.00;;;;;;;;4973084;28;45305;-54
2022/09/11 07:48:57;;;;;;;;;16.00;15.67;;;;;;;;4979083;28;46022;-55
2022/09/11 07:51:22;;;;;;;;;19.33;16.00;;;;;;;;4979365;28;45337;-55
2022/09/11 07:53:49;;;;;;;;;19.33;16.00;;;;;;;;4978808;28;45365;-58
2022/09/11 07:56:17;;;;;;;;;15.67;15.67;;;;;;;;4975751;28;45435;-56
2022/09/11 07:58:42;;;;;;;;;17.67;16.33;;;;;;;;4976269;28;46362;-56
2022/09/11 08:01:08;;;;;;;;;19.67;16.67;;;;;;;;4978522;28;45394;-56
2022/09/11 08:03:34;;;;;;;;;21.33;17.67;;;;;;;;4979348;28;45474;-55
2022/09/11 08:06:00;;;;;;;;;23.33;22.33;;;;;;;;4973540;28;45401;-58
2022/09/11 08:08:27;;;;;;;;;21.67;20.67;;;;;;;;4978671;28;45491;-57
2022/09/11 08:10:54;;;;;;;;;18.67;18.33;;;;;;;;4976633;28;45802;-55
2022/09/11 08:13:19;;;;;;;;;27.33;22.00;;;;;;;;4976735;28;45490;-56
2022/09/11 08:15:45;;;;;;;;;27.00;26.67;;;;;;;;4976774;28;45424;-55
2022/09/11 08:18:10;;;;;;;;;21.00;20.33;;;;;;;;4970948;28;46076;-56
2022/09/11 08:20:36;;;;;;;;;21.67;21.33;;;;;;;;4975368;28;45476;-53
2022/09/11 08:23:01;;;;;;;;;27.67;24.33;;;;;;;;4977094;28;46590;-56
2022/09/11 08:25:27;;;;;;;;;26.67;23.00;;;;;;;;4975368;28;45590;-57
2022/09/11 08:27:52;;;;;;;;;24.33;23.33;;;;;;;;4967258;28;46410;-56
2022/09/11 08:30:17;;;;;;;;;24.33;22.67;;;;;;;;4974044;28;45403;-57
2022/09/11 08:32:42;;;;;;;;;25.00;22.67;;;;;;;;4975612;28;45418;-56
2022/09/11 08:35:08;;;;;;;;;32.33;27.33;;;;;;;;4966776;28;45481;-55
2022/09/11 08:37:33;;;;;;;;;27.67;23.33;;;;;;;;4971477;28;45371;-57
2022/09/11 08:39:59;;;;;;;;;24.67;23.67;;;;;;;;4976617;28;45482;-55
2022/09/11 08:42:26;;;;;;;;;34.33;29.67;;;;;;;;4977950;28;45637;-57
2022/09/11 08:44:53;;;;;;;;;24.67;24.00;;;;;;;;4970519;28;45746;-57
2022/09/11 08:47:24;;;;;;;;;35.00;32.67;;;;;;;;4964894;28;46748;-56
2022/09/11 08:50:10;;;;;;;;;29.00;28.67;;;;;;;;4964620;28;45874;-56
2022/09/11 08:52:35;;;;;;;;;33.67;29.33;;;;;;;;4970894;28;45313;-55
2022/09/11 08:55:01;;;;;;;;;29.00;29.00;;;;;;;;4969440;28;45320;-57
2022/09/11 08:57:45;;;;;;;;;34.00;31.33;;;;;;;;4968711;28;45242;-62
2022/09/11 09:00:20;;;;;;;;;28.00;26.00;;;;;;;;4975809;28;45446;-61
2022/09/11 09:02:48;;;;;;;;;34.33;31.33;;;;;;;;4974559;28;45430;-61
2022/09/11 09:05:19;;;;;;;;;32.00;31.67;;;;;;;;4969994;28;45293;-62
2022/09/11 09:07:47;;;;;;;;;29.00;28.00;;;;;;;;4970685;28;46332;-62
2022/09/11 09:10:32;;;;;;;;;37.33;32.33;;;;;;;;4974525;28;45281;-61
2022/09/11 09:13:03;;;;;;;;;33.33;30.33;;;;;;;;4971708;28;45443;-61
2022/09/11 09:15:38;;;;;;;;;39.00;32.00;;;;;;;;4973751;28;45410;-62
2022/09/11 09:18:13;;;;;;;;;38.67;32.67;;;;;;;;4973099;28;46296;-62
2022/09/11 09:20:45;;;;;;;;;34.33;32.33;;;;;;;;4972278;28;45478;-62
2022/09/11 09:23:24;;;;;;;;;27.33;27.00;;;;;;;;4971403;28;45375;-61
2022/09/11 09:25:58;;;;;;;;;26.00;25.00;;;;;;;;4960487;28;45263;-62
2022/09/11 09:28:30;;;;;;;;;32.33;30.67;;;;;;;;4974059;28;45339;-62
2022/09/11 09:30:57;;;;;;;;;27.33;27.33;;;;;;;;4971104;28;45249;-62
2022/09/11 09:33:22;;;;;;;;;27.00;27.00;;;;;;;;4965547;28;45288;-62
2022/09/11 09:35:47;;;;;;;;;30.00;28.00;;;;;;;;4964486;28;45265;-62
2022/09/11 09:38:13;;;;;;;;;31.33;30.00;;;;;;;;4972449;28;45735;-62
2022/09/11 09:40:48;;;;;;;;;32.33;30.00;;;;;;;;4969415;28;45497;-62
2022/09/11 09:43:36;;;;;;;;;34.67;28.33;;;;;;;;4971301;28;45590;-62
2022/09/11 09:46:06;;;;;;;;;31.00;29.67;;;;;;;;4961993;28;45611;-62
2022/09/11 09:48:34;;;;;;;;;27.00;25.00;;;;;;;;4974590;28;45602;-62
2022/09/11 09:51:02;;;;;;;;;28.33;28.33;;;;;;;;4977146;28;45463;-62
2022/09/11 09:53:42;;;;;;;;;28.00;24.33;;;;;;;;4976130;28;45344;-62
2022/09/11 09:56:11;;;;;;;;;36.00;31.33;;;;;;;;4977449;28;45558;-62
2022/09/11 09:58:41;;;;;;;;;25.33;25.33;;;;;;;;4980874;28;46468;-63
2022/09/11 10:01:30;;;;;;;;;28.00;27.00;;;;;;;;4975875;28;45526;-63
2022/09/11 10:04:15;;;;;;;;;22.67;21.33;;;;;;;;4980438;28;45377;-63
2022/09/11 10:06:40;;;;;;;;;24.33;20.67;;;;;;;;4975890;28;45399;-63
2022/09/11 10:09:16;;;;;;;;;26.33;24.33;;;;;;;;4976566;28;46016;-63
2022/09/11 10:11:42;;;;;;;;;20.33;19.67;;;;;;;;4973732;28;45301;-64
2022/09/11 10:14:16;;;;;;;;;22.33;22.33;;;;;;;;4977966;28;45576;-62
2022/09/11 10:16:47;;;;;;;;;23.00;19.00;;;;;;;;4979975;28;45506;-63
2022/09/11 10:19:29;;;;;;;;;16.00;15.25;;;;;;;;4974969;28;46266;-63
2022/09/11 10:22:08;;;;;;;;;14.00;14.00;;;;;;;;4978301;28;46659;-63
2022/09/11 10:24:34;;;;;;;;;12.75;12.00;;;;;;;;4976982;28;45396;-63
2022/09/11 10:27:00;;;;;;;;;12.50;12.50;;;;;;;;4972774;28;45333;-63
2022/09/11 10:29:28;;;;;;;;;12.25;12.25;;;;;;;;4974444;28;46191;-63
2022/09/11 10:31:55;;;;;;;;;10.75;9.75;;;;;;;;4980855;28;45246;-63
2022/09/11 10:34:22;;;;;;;;;11.50;10.75;;;;;;;;4979687;28;45301;-63
2022/09/11 10:36:54;;;;;;;;;11.25;9.75;;;;;;;;4975323;28;45372;-63
2022/09/11 10:39:20;;;;;;;;;6.75;5.50;;;;;;;;4976356;28;46313;-63
2022/09/11 10:41:53;;;;;;;;;6.00;5.00;;;;;;;;4973459;28;45637;-63
2022/09/11 10:44:21;;;;;;;;;9.50;8.25;;;;;;;;4971074;28;45294;-63
2022/09/11 10:47:00;;;;;;;;;7.50;7.50;;;;;;;;4971752;28;45322;-63
2022/09/11 10:49:25;;;;;;;;;9.00;7.00;;;;;;;;4966938;28;47208;-63
2022/09/11 10:52:00;;;;;;;;;9.50;9.00;;;;;;;;4970132;28;45542;-63
2022/09/11 10:54:38;;;;;;;;;11.50;10.25;;;;;;;;4962580;28;45697;-62
2022/09/11 10:57:19;;;;;;;;;8.75;7.25;;;;;;;;4975488;28;45280;-60
2022/09/11 10:59:56;;;;;;;;;6.50;5.50;;;;;;;;4973449;28;46255;-60
2022/09/11 11:02:30;;;;;;;;;9.00;9.00;;;;;;;;4979513;28;45507;-60
2022/09/11 11:04:56;;;;;;;;;7.75;7.75;;;;;;;;4978245;28;45433;-60
2022/09/11 11:07:22;;;;;;;;;7.25;7.25;;;;;;;;4966973;28;45511;-62
2022/09/11 11:10:07;;;;;;;;;6.75;6.75;;;;;;;;4965133;28;46091;-60
2022/09/11 11:12:40;;;;;;;;;8.75;8.00;;;;;;;;4974962;28;46601;-61
2022/09/11 11:15:18;;;;;;;;;8.00;8.00;;;;;;;;4974823;28;45425;-61
2022/09/11 11:17:57;;;;;;;;;7.75;7.75;;;;;;;;4961860;28;45278;-60
2022/09/11 11:20:41;;;;;;;;;5.50;5.50;;;;;;;;4971260;28;47216;-62
2022/09/11 11:23:24;;;;;;;;;7.50;7.50;;;;;;;;4962082;28;46825;-61
2022/09/11 11:25:49;;;;;;;;;5.25;5.25;;;;;;;;4973767;28;45547;-60
2022/09/11 11:28:40;;;;;;;;;10.00;7.75;;;;;;;;4973512;28;45427;-59
2022/09/11 11:31:24;;;;;;;;;7.75;7.00;;;;;;;;4967677;28;46494;-59
2022/09/11 11:34:08;;;;;;;;;5.00;4.50;;;;;;;;4970118;28;45717;-59
2022/09/11 11:36:33;;;;;;;;;5.75;5.75;;;;;;;;4978182;28;45546;-59
2022/09/11 11:39:01;;;;;;;;;7.00;6.50;;;;;;;;4965974;28;45406;-59
2022/09/11 11:41:43;;;;;;;;;6.00;6.00;;;;;;;;4970871;28;46353;-61
2022/09/11 11:44:14;;;;;;;;;7.75;4.75;;;;;;;;4970258;28;45411;-60
2022/09/11 11:46:51;;;;;;;;;6.00;6.00;;;;;;;;4978381;28;45233;-60
2022/09/11 11:49:19;;;;;;;;;8.00;5.00;;;;;;;;4974358;28;45631;-60
2022/09/11 11:51:50;;;;;;;;;8.50;6.00;;;;;;;;4971400;28;47214;-60
2022/09/11 11:54:22;;;;;;;;;6.25;6.25;;;;;;;;4977536;28;45292;-60
2022/09/11 11:56:52;;;;;;;;;6.75;6.75;;;;;;;;4978726;28;45287;-60
2022/09/11 11:59:52;;;;;;;;;7.50;7.25;;;;;;;;4976014;28;45437;-60
2022/09/11 12:02:25;;;;;;;;;3.25;3.25;;;;;;;;4904140;28;46342;-60
2022/09/11 12:04:50;;;;;;;;;3.00;3.00;;;;;;;;4956809;28;45542;-60
2022/09/11 12:07:26;;;;;;;;;7.25;7.25;;;;;;;;4977678;28;45390;-60
2022/09/11 12:09:53;;;;;;;;;5.50;4.75;;;;;;;;4970099;28;46794;-60
2022/09/11 12:12:19;;;;;;;;;3.75;3.75;;;;;;;;4989936;28;46951;-59
2022/09/11 12:14:49;;;;;;;;;7.25;5.75;;;;;;;;4967617;28;45151;-59
2022/09/11 12:17:16;;;;;;;;;5.75;5.75;;;;;;;;4964857;28;45748;-60
2022/09/11 12:20:07;;;;;;;;;6.75;5.75;;;;;;;;4967624;28;45726;-59
2022/09/11 12:22:37;;;;;;;;;6.50;6.25;;;;;;;;4970010;28;46346;-60
2022/09/11 12:25:02;;;;;;;;;4.75;4.75;;;;;;;;4980666;28;45442;-60
2022/09/11 12:27:33;;;;;;;;;6.25;6.25;;;;;;;;4969994;28;45646;-60
2022/09/11 12:30:21;;;;;;;;;5.50;5.50;;;;;;;;4972300;28;45959;-60
2022/09/11 12:32:53;;;;;;;;;4.00;4.00;;;;;;;;4968365;28;45554;-60
2022/09/11 12:35:22;;;;;;;;;7.75;7.75;;;;;;;;4964494;28;45357;-60
2022/09/11 12:37:59;;;;;;;;;5.75;5.75;;;;;;;;4965436;28;45627;-60
2022/09/11 12:40:31;;;;;;;;;7.75;6.50;;;;;;;;4973248;28;45642;-60
2022/09/11 12:43:25;;;;;;;;;8.25;6.75;;;;;;;;4976240;28;45697;-60
2022/09/11 12:45:50;;;;;;;;;6.00;6.00;;;;;;;;4967682;28;45450;-60
2022/09/11 12:48:19;;;;;;;;;5.50;5.50;;;;;;;;4962502;28;46251;-60
2022/09/11 12:50:48;;;;;;;;;7.00;6.75;;;;;;;;4969139;28;45523;-60
2022/09/11 12:53:16;;;;;;;;;5.75;5.75;;;;;;;;4964741;28;46326;-60
2022/09/11 12:55:49;;;;;;;;;8.50;8.00;;;;;;;;4971630;28;45391;-59
2022/09/11 12:58:18;;;;;;;;;6.75;6.75;;;;;;;;4965732;28;45595;-60
2022/09/11 13:00:45;;;;;;;;;5.25;5.25;;;;;;;;4972266;28;45714;-59
2022/09/11 13:03:17;;;;;;;;;9.00;8.00;;;;;;;;4969928;28;46144;-59
2022/09/11 13:05:50;;;;;;;;;6.50;5.25;;;;;;;;4966415;28;45454;-59
2022/09/11 13:08:21;;;;;;;;;4.25;4.25;;;;;;;;4972681;28;45541;-59
2022/09/11 13:10:46;;;;;;;;;7.00;4.75;;;;;;;;4968569;28;45972;-59
2022/09/11 13:13:37;;;;;;;;;5.75;5.75;;;;;;;;4964778;28;46130;-59
2022/09/11 13:16:18;;;;;;;;;6.75;6.75;;;;;;;;4965419;28;45486;-60
2022/09/11 13:18:43;;;;;;;;;7.25;5.25;;;;;;;;4970991;28;45531;-59
2022/09/11 13:21:08;;;;;;;;;49.67;40.67;;;;;;;;4970160;28;45370;-60
2022/09/11 13:23:33;;;;;;;;;42.33;36.67;;;;;;;;4972476;28;45971;-59
2022/09/11 13:25:59;;;;;;;;;6.25;6.25;;;;;;;;4966211;28;45511;-59
2022/09/11 13:28:26;;;;;;;;;7.00;7.00;;;;;;;;4978496;28;45423;-59
2022/09/11 13:30:54;;;;;;;;;5.00;5.00;;;;;;;;4964805;28;45713;-59
2022/09/11 13:33:26;;;;;;;;;14.00;12.00;;;;;;;;4970921;28;46977;-59
2022/09/11 13:35:52;;;;;;;;;12.33;12.33;;;;;;;;4966124;28;45907;-59
2022/09/11 13:38:22;;;;;;;;;16.33;15.00;;;;;;;;4971519;28;45323;-59
2022/09/11 13:40:56;;;;;;;;;4.75;4.75;;;;;;;;4966915;28;45491;-59
2022/09/11 13:43:25;;;;;;;;;23.67;22.33;;;;;;;;4975931;28;45624;-59
2022/09/11 13:46:10;;;;;;;;;11.00;10.33;;;;;;;;4975682;28;46400;-60
2022/09/11 13:48:36;;;;;;;;;7.00;7.00;;;;;;;;4960532;28;45466;-59
2022/09/11 13:51:03;;;;;;;;;5.00;5.00;;;;;;;;4971882;28;45473;-59
2022/09/11 13:53:29;;;;;;;;;15.00;14.67;;;;;;;;4967385;28;47035;-59
2022/09/11 13:55:55;;;;;;;;;5.00;5.00;;;;;;;;4966171;28;45683;-59
2022/09/11 13:58:22;;;;;;;;;5.50;5.50;;;;;;;;4970262;28;45388;-60
2022/09/11 14:00:49;;;;;;;;;5.00;5.00;;;;;;;;4964627;28;45591;-60
2022/09/11 14:03:19;;;;;;;;;5.25;5.25;;;;;;;;4974899;28;45367;-59
2022/09/11 14:05:55;;;;;;;;;7.25;7.25;;;;;;;;4975595;28;45638;-60
2022/09/11 14:08:24;;;;;;;;;12.50;9.50;;;;;;;;4968754;28;45510;-60
2022/09/11 14:10:51;;;;;;;;;5.75;5.50;;;;;;;;4974947;28;45542;-59
2022/09/11 14:13:23;;;;;;;;;7.33;7.33;;;;;;;;4969004;28;47331;-59
2022/09/11 14:15:48;;;;;;;;;6.75;5.75;;;;;;;;4973216;28;45577;-59
2022/09/11 14:18:26;;;;;;;;;6.50;6.00;;;;;;;;4972342;28;45584;-60
2022/09/11 14:20:52;;;;;;;;;7.25;7.25;;;;;;;;4974603;28;46594;-60
2022/09/11 14:23:20;;;;;;;;;5.75;5.75;;;;;;;;4971691;28;47133;-60
2022/09/11 14:26:05;;;;;;;;;4.25;4.25;;;;;;;;4976791;28;45561;-60
2022/09/11 14:28:41;;;;;;;;;7.00;6.50;;;;;;;;4972280;28;45466;-59
2022/09/11 14:31:08;;;;;;;;;7.75;7.75;;;;;;;;4972805;28;45524;-59
2022/09/11 14:33:33;;;;;;;;;5.75;5.75;;;;;;;;4964055;28;47146;-59
2022/09/11 14:36:04;;;;;;;;;7.75;6.25;;;;;;;;4971625;28;45505;-59
2022/09/11 14:38:30;;;;;;;;;7.50;7.50;;;;;;;;4974601;28;45325;-59
2022/09/11 14:40:57;;;;;;;;;6.67;6.33;;;;;;;;4974113;28;45491;-59
2022/09/11 14:43:30;;;;;;;;;6.00;4.50;;;;;;;;4976008;28;46199;-59
2022/09/11 14:45:56;;;;;;;;;6.00;5.00;;;;;;;;4972217;28;45653;-59
2022/09/11 14:48:21;;;;;;;;;5.25;5.25;;;;;;;;4976321;28;45585;-60
2022/09/11 14:50:47;;;;;;;;;3.50;3.50;;;;;;;;4963879;28;45694;-59
2022/09/11 14:53:16;;;;;;;;;5.00;5.00;;;;;;;;4972430;28;45558;-59
2022/09/11 14:55:42;;;;;;;;;3.50;3.00;;;;;;;;4971360;28;45458;-59
2022/09/11 14:58:07;;;;;;;;;5.25;5.00;;;;;;;;4973780;28;45845;-59
2022/09/11 15:00:32;;;;;;;;;4.00;4.00;;;;;;;;4975708;28;45695;-59
2022/09/11 15:02:59;;;;;;;;;3.00;3.00;;;;;;;;4973910;28;46234;-59
2022/09/11 15:05:24;;;;;;;;;4.00;2.50;;;;;;;;4967766;28;45607;-53
2022/09/11 15:07:51;;;;;;;;;2.50;2.50;;;;;;;;4972497;28;45400;-59
2022/09/11 15:10:17;;;;;;;;;4.00;4.00;;;;;;;;4966919;28;45527;-59
2022/09/11 15:12:43;;;;;;;;;4.00;3.25;;;;;;;;4965947;28;46874;-59
2022/09/11 15:15:08;;;;;;;;;5.00;5.00;;;;;;;;4966711;28;45398;-55
2022/09/11 15:17:35;;;;;;;;;2.75;2.75;;;;;;;;4965185;28;45419;-60
2022/09/11 15:20:00;;;;;;;;;4.25;3.50;;;;;;;;4968183;28;45456;-60
2022/09/11 15:22:25;;;;;;;;;3.00;3.00;;;;;;;;4970393;28;46105;-57
2022/09/11 15:24:51;;;;;;;;;2.75;2.75;;;;;;;;4966410;28;45379;-56
2022/09/11 15:27:17;;;;;;;;;2.75;2.75;;;;;;;;4964727;28;45586;-59
2022/09/11 15:29:43;;;;;;;;;2.00;2.00;;;;;;;;4966255;28;45225;-59
2022/09/11 15:32:09;;;;;;;;;4.00;4.00;;;;;;;;4964089;28;46150;-60
2022/09/11 15:34:34;;;;;;;;;2.25;2.00;;;;;;;;4977905;28;45657;-57
2022/09/11 15:37:00;;;;;;;;;2.00;2.00;;;;;;;;4980746;28;45216;-59
2022/09/11 15:39:26;;;;;;;;;3.00;2.00;;;;;;;;4967421;28;45701;-60
2022/09/11 15:41:53;;;;;;;;;3.00;3.00;;;;;;;;4969856;28;46063;-57
2022/09/11 15:44:19;;;;;;;;;2.00;2.00;;;;;;;;4977839;28;45483;-60
2022/09/11 15:46:45;;;;;;;;;2.50;2.50;;;;;;;;4974299;28;45467;-60
2022/09/11 15:49:10;;;;;;;;;2.00;2.00;;;;;;;;4972994;28;45216;-60
2022/09/11 15:51:37;;;;;;;;;1.75;1.75;;;;;;;;4974755;28;46226;-59
2022/09/11 15:54:03;;;;;;;;;3.00;2.00;;;;;;;;4971193;28;45281;-61
2022/09/11 15:56:28;;;;;;;;;1.75;1.75;;;;;;;;4974813;28;45526;-59
2022/09/11 15:58:55;;;;;;;;;2.00;1.75;;;;;;;;4974925;28;45641;-60
2022/09/11 16:01:22;;;;;;;;;1.00;1.00;;;;;;;;4962800;28;46203;-59
2022/09/11 16:03:51;;;;;;;;;2.00;2.00;;;;;;;;4971205;28;45403;-55
2022/09/11 16:06:17;;;;;;;;;4.00;3.00;;;;;;;;4971389;28;45419;-55
2022/09/11 16:08:42;;;;;;;;;3.25;1.50;;;;;;;;4979555;28;45407;-56
2022/09/11 16:11:10;;;;;;;;;3.00;2.00;;;;;;;;4963803;28;46286;-57
2022/09/11 16:13:36;;;;;;;;;3.00;2.75;;;;;;;;4969930;28;45429;-57
2022/09/11 16:16:02;;;;;;;;;2.00;2.00;;;;;;;;4980107;28;45616;-56
2022/09/11 16:18:27;;;;;;;;;1.50;1.50;;;;;;;;4972237;28;45328;-56
2022/09/11 16:20:59;;;;;;;;;2.75;1.50;;;;;;;;4969751;28;46050;-57
2022/09/11 16:23:24;;;;;;;;;3.50;3.50;;;;;;;;4966537;28;45508;-59
2022/09/11 16:25:50;;;;;;;;;5.00;2.75;;;;;;;;4980097;28;45357;-59
2022/09/11 16:28:16;;;;;;;;;2.75;2.00;;;;;;;;4969718;28;45207;-60
2022/09/11 16:30:41;;;;;;;;;3.00;3.00;;;;;;;;4962579;28;46058;-59
2022/09/11 16:33:07;;;;;;;;;1.00;1.00;;;;;;;;4966632;28;45151;-60
2022/09/11 16:35:32;;;;;;;;;3.50;1.00;;;;;;;;4972149;28;45408;-60
2022/09/11 16:37:59;;;;;;;;;2.00;2.00;;;;;;;;4973484;28;45416;-59
2022/09/11 16:40:25;;;;;;;;;3.75;1.25;;;;;;;;4972297;28;46143;-59
2022/09/11 16:42:50;;;;;;;;;3.00;3.00;;;;;;;;4973071;28;45581;-60
2022/09/11 16:45:15;;;;;;;;;3.00;3.00;;;;;;;;4973673;28;45429;-59
2022/09/11 16:47:40;;;;;;;;;3.00;3.00;;;;;;;;4973229;28;45430;-59
2022/09/11 16:50:06;;;;;;;;;3.00;3.00;;;;;;;;4968935;28;46066;-59
2022/09/11 16:52:33;;;;;;;;;5.00;5.00;;;;;;;;4971454;28;45781;-60
2022/09/11 16:54:58;;;;;;;;;4.00;3.75;;;;;;;;4970508;28;45304;-60
2022/09/11 16:57:26;;;;;;;;;4.25;4.25;;;;;;;;4969155;28;45237;-60
2022/09/11 16:59:51;;;;;;;;;2.75;2.75;;;;;;;;4974311;28;48046;-60
2022/09/11 17:02:16;;;;;;;;;13.00;11.33;;;;;;;;4973180;28;45788;-59
2022/09/11 17:04:41;;;;;;;;;7.50;7.50;;;;;;;;4968907;28;45664;-60
2022/09/11 17:07:06;;;;;;;;;10.00;10.00;;;;;;;;4968694;28;45356;-59
2022/09/11 17:09:31;;;;;;;;;7.00;5.25;;;;;;;;4973986;28;45406;-60
2022/09/11 17:11:57;;;;;;;;;2.50;2.50;;;;;;;;4977122;28;45470;-59
2022/09/11 17:14:23;;;;;;;;;2.00;2.00;;;;;;;;4965208;28;45847;-59
2022/09/11 17:16:48;;;;;;;;;1.25;1.25;;;;;;;;4963193;28;45537;-59
2022/09/11 17:19:13;;;;;;;;;1.75;1.75;;;;;;;;4971015;28;45356;-59
2022/09/11 17:21:38;;;;;;;;;2.25;2.00;;;;;;;;4965261;28;45415;-60
2022/09/11 17:24:05;;;;;;;;;3.75;3.75;;;;;;;;4968691;28;45468;-60
2022/09/11 17:26:30;;;;;;;;;3.25;3.25;;;;;;;;4964561;28;45464;-59
2022/09/11 17:28:57;;;;;;;;;3.50;3.00;;;;;;;;4973628;28;46105;-59
2022/09/11 17:31:23;;;;;;;;;3.25;3.00;;;;;;;;4971667;28;45658;-60
2022/09/11 17:33:48;;;;;;;;;2.50;2.50;;;;;;;;4968974;28;45461;-60
2022/09/11 17:36:16;;;;;;;;;3.00;2.75;;;;;;;;4969666;28;45671;-58
2022/09/11 17:38:42;;;;;;;;;5.00;5.00;;;;;;;;4974155;28;47177;-60
2022/09/11 17:41:08;;;;;;;;;3.50;3.00;;;;;;;;4963753;28;45556;-59
2022/09/11 17:43:35;;;;;;;;;2.00;2.00;;;;;;;;4969214;28;45370;-60
2022/09/11 17:46:04;;;;;;;;;3.50;3.50;;;;;;;;4968313;28;45465;-59
2022/09/11 17:48:30;;;;;;;;;4.50;2.00;;;;;;;;4964941;28;46477;-59
2022/09/11 17:51:00;;;;;;;;;3.75;3.00;;;;;;;;4967966;28;45379;-59
2022/09/11 17:53:25;;;;;;;;;3.25;3.25;;;;;;;;4964004;28;45366;-60
2022/09/11 17:55:57;;;;;;;;;4.25;4.25;;;;;;;;4973914;28;45510;-60
2022/09/11 17:58:22;;;;;;;;;4.00;3.00;;;;;;;;4960693;28;45533;-60
2022/09/11 18:00:48;;;;;;;;;3.50;3.00;;;;;;;;4968098;28;45327;-61
2022/09/11 18:03:13;;;;;;;;;5.00;2.00;;;;;;;;4967275;28;45269;-59
2022/09/11 18:05:43;;;;;;;;;3.00;3.00;;;;;;;;4974441;28;45511;-61
2022/09/11 18:08:08;;;;;;;;;3.00;3.00;;;;;;;;4973255;28;46994;-60
2022/09/11 18:10:34;;;;;;;;;2.25;2.25;;;;;;;;4969650;28;47585;-60
2022/09/11 18:12:59;;;;;;;;;2.00;2.00;;;;;;;;4971023;28;45686;-59
2022/09/11 18:15:26;;;;;;;;;4.75;4.00;;;;;;;;4971550;28;45292;-60
2022/09/11 18:17:52;;;;;;;;;3.00;3.00;;;;;;;;4969015;28;47181;-60
2022/09/11 18:20:18;;;;;;;;;2.00;2.00;;;;;;;;4973044;28;45471;-59
2022/09/11 18:22:44;;;;;;;;;4.00;4.00;;;;;;;;4974152;28;45451;-61
2022/09/11 18:25:09;;;;;;;;;6.00;5.00;;;;;;;;4977882;28;45459;-60
2022/09/11 18:27:34;;;;;;;;;3.00;3.00;;;;;;;;4975662;28;45566;-61
2022/09/11 18:29:59;;;;;;;;;5.00;5.00;;;;;;;;4976544;28;45472;-61
2022/09/11 18:32:25;;;;;;;;;5.75;5.00;;;;;;;;4969844;28;45603;-59
2022/09/11 18:34:50;;;;;;;;;5.33;5.00;;;;;;;;4964812;28;45459;-60
2022/09/11 18:37:16;;;;;;;;;3.00;3.00;;;;;;;;4975827;28;46346;-60
2022/09/11 18:39:41;;;;;;;;;4.75;3.75;;;;;;;;4971965;28;45393;-60
2022/09/11 18:42:07;;;;;;;;;4.00;4.00;;;;;;;;4974314;28;45851;-60
2022/09/11 18:44:32;;;;;;;;;5.00;4.75;;;;;;;;4977178;28;45406;-60
2022/09/11 18:46:57;;;;;;;;;4.00;4.00;;;;;;;;4977397;28;46206;-60
2022/09/11 18:49:23;;;;;;;;;7.33;7.00;;;;;;;;4974306;28;45340;-60
2022/09/11 18:51:48;;;;;;;;;4.00;4.00;;;;;;;;4968691;28;45628;-59
2022/09/11 18:54:15;;;;;;;;;4.00;4.00;;;;;;;;4966541;28;45344;-59
2022/09/11 18:56:41;;;;;;;;;6.00;5.00;;;;;;;;4969289;28;48283;-60
2022/09/11 18:59:06;;;;;;;;;5.33;5.33;;;;;;;;4970014;28;45403;-60
2022/09/11 19:01:32;;;;;;;;;4.67;4.67;;;;;;;;4968724;28;45473;-60
2022/09/11 19:03:57;;;;;;;;;6.00;5.00;;;;;;;;4975223;28;46790;-60
2022/09/11 19:06:24;;;;;;;;;9.00;8.00;;;;;;;;4970015;28;47197;-59
2022/09/11 19:08:50;;;;;;;;;9.67;9.67;;;;;;;;4972399;28;45478;-60
2022/09/11 19:11:17;;;;;;;;;10.33;10.33;;;;;;;;4969127;28;45431;-59
2022/09/11 19:13:45;;;;;;;;;10.00;9.33;;;;;;;;4974773;28;45472;-59
2022/09/11 19:16:10;;;;;;;;;7.00;7.00;;;;;;;;4973691;28;46177;-59
2022/09/11 19:18:37;;;;;;;;;7.00;5.67;;;;;;;;4972170;28;45346;-60
2022/09/11 19:21:04;;;;;;;;;7.67;7.67;;;;;;;;4970687;28;45374;-60
2022/09/11 19:23:30;;;;;;;;;11.00;10.33;;;;;;;;4966708;28;45307;-60
2022/09/11 19:25:58;;;;;;;;;8.33;8.00;;;;;;;;4972773;28;45813;-60
2022/09/11 19:28:24;;;;;;;;;8.67;7.33;;;;;;;;4971027;28;45797;-61
2022/09/11 19:30:59;;;;;;;;;13.00;11.33;;;;;;;;4969141;28;45428;-59
2022/09/11 19:33:24;;;;;;;;;9.33;8.67;;;;;;;;4970457;28;46218;-60
2022/09/11 19:35:56;;;;;;;;;12.67;11.33;;;;;;;;4964508;28;45467;-60
2022/09/11 19:38:24;;;;;;;;;13.00;9.00;;;;;;;;4968714;28;45438;-60
2022/09/11 19:40:49;;;;;;;;;9.67;9.67;;;;;;;;4963111;28;45761;-60
2022/09/11 19:43:15;;;;;;;;;12.00;9.67;;;;;;;;4972693;28;45721;-59
2022/09/11 19:45:42;;;;;;;;;12.33;9.00;;;;;;;;4970032;28;45469;-60
2022/09/11 19:48:07;;;;;;;;;11.00;9.67;;;;;;;;4970077;28;45372;-60
2022/09/11 19:50:34;;;;;;;;;10.00;10.00;;;;;;;;4967186;28;45478;-60
2022/09/11 19:53:00;;;;;;;;;10.33;9.33;;;;;;;;4973838;28;45379;-60
2022/09/11 19:55:25;;;;;;;;;8.00;6.67;;;;;;;;4971853;28;46023;-60
2022/09/11 19:57:50;;;;;;;;;8.67;7.00;;;;;;;;4963330;28;45305;-59
2022/09/11 20:00:16;;;;;;;;;7.00;6.00;;;;;;;;4966587;28;45388;-60
2022/09/11 20:02:43;;;;;;;;;8.00;8.00;;;;;;;;4960017;28;45626;-59
2022/09/11 20:05:08;;;;;;;;;7.67;5.00;;;;;;;;4966081;28;46110;-59
2022/09/11 20:07:34;;;;;;;;;8.33;8.33;;;;;;;;4962838;28;45570;-59
2022/09/11 20:09:59;;;;;;;;;8.67;8.67;;;;;;;;4965387;28;45280;-60
2022/09/11 20:12:25;;;;;;;;;11.00;8.67;;;;;;;;4964254;28;45708;-59
2022/09/11 20:14:50;;;;;;;;;10.67;9.00;;;;;;;;4962697;28;46188;-60
2022/09/11 20:17:15;;;;;;;;;11.00;9.33;;;;;;;;4965696;28;45685;-60
2022/09/11 20:19:43;;;;;;;;;9.00;9.00;;;;;;;;4971730;28;45486;-60
2022/09/11 20:22:08;;;;;;;;;8.33;7.33;;;;;;;;4969933;28;45490;-60
2022/09/11 20:24:34;;;;;;;;;9.00;9.00;;;;;;;;4971772;28;45388;-60
2022/09/11 20:26:59;;;;;;;;;10.00;9.00;;;;;;;;4974824;28;45427;-60
2022/09/11 20:29:24;;;;;;;;;9.33;8.00;;;;;;;;4972949;28;45435;-60
2022/09/11 20:31:49;;;;;;;;;11.00;9.00;;;;;;;;4966885;28;45775;-60
2022/09/11 20:34:18;;;;;;;;;9.00;8.67;;;;;;;;4967994;28;46102;-60
2022/09/11 20:36:44;;;;;;;;;9.00;9.00;;;;;;;;4968717;28;46397;-59
2022/09/11 20:39:10;;;;;;;;;6.00;6.00;;;;;;;;4972244;28;45417;-58
2022/09/11 20:41:35;;;;;;;;;9.00;9.00;;;;;;;;4974090;28;45352;-59